Kezdőlap
METAR-TAF:

METAR-TAF

Repülőterek :

Chillán, Chile

földrajzi szélesség: 36-34S, földrajzi hosszúság: 072-02W, magasság: 124 m

Jelenlegi meteorológiai megfigyelések

A jelentés 1 órával és 8 perccel ezelõtt készült, 22:00 UTC
Északi szél 3 kt
Hőmérséklet 12°C
Páratartalom 67%
Légköri nyomás 1017 hPa
Látótávolság: 5000 m
Szakadozott felhőzet 9000 lábon
Szakadozott felhőzet 20000 lábon
Száraz légköri homály,

METAR: SCCH 192200Z 36003KT 5000 HZ BKN090 BKN200 12/06 Q1017

Idő: 19:08 (23:08 UTC)


TAF: hiányzik

Meteorológiai megfigyelések és előrejelzések több, mint 4000 repülőtéren (METAR és TAF jelentéseket).

A térképen piros és sárga pontok jelzik az elérhető meteorológiai állomásokat.

Mozgassa az egeret a pont fölött, hogy megjelenjen az állomás neve.

Azután kattintson az időjárási megfigyelések és előrejelzések megtekintéséhez.

A térkép megváltoztatása: kattintson a fekete keresztel jelölt zöld gombra ráközelítéshez, a vonallal jelölt zöld gombra távolításhoz, vagy a zöld nyilakra a szomszédos térképek eléréséhez.


METAR-TAF: